Time;durP1;ratioP1;P1;durP2;ratioP2;P2;SDS_P1;SDS_P2;PMS_P1;PMS_P2;Temp;Humidity;BMP_temperature;BMP_pressure;BME280_temperature;BME280_humidity;BME280_pressure;Samples;Min_cycle;Max_cycle;Signal;HPM_P1;HPM_P2
2021/12/14 00:02:16;;;;;;;68.72;61.33;;;;;;;7.56;92.63;102466.72;4986139;28;20077;-86
2021/12/14 00:04:42;;;;;;;66.80;59.78;;;;;;;7.55;93.52;102470.13;4982800;28;20007;-86
2021/12/14 00:07:14;;;;;;;67.88;60.65;;;;;;;7.29;93.34;102432.28;4975289;23;20047;-83
2021/12/14 00:09:41;;;;;;;68.30;60.95;;;;;;;7.25;93.49;102431.38;4930840;29;20030;-84
2021/12/14 00:12:38;;;;;;;67.47;59.80;;;;;;;7.22;93.02;102420.22;4949990;29;20031;-84
2021/12/14 00:15:35;;;;;;;68.22;60.95;;;;;;;7.50;93.81;102470.06;4932110;29;20030;-83
2021/12/14 00:18:05;;;;;;;68.40;61.10;;;;;;;7.21;92.91;102413.41;4924753;29;20032;-83
2021/12/14 00:20:39;;;;;;;67.90;60.50;;;;;;;7.57;93.08;102468.44;4909143;29;20104;-84
2021/12/14 00:25:39;;;;;;;72.22;61.30;;;;;;;7.27;93.07;102418.59;4932624;29;20027;-81
2021/12/14 00:28:22;;;;;;;72.40;63.15;;;;;;;7.39;93.42;102430.66;4963136;28;20050;-83
2021/12/14 00:30:50;;;;;;;65.90;59.00;;;;;;;7.48;92.63;102442.72;4949639;29;20031;-81
2021/12/14 00:33:18;;;;;;;67.18;59.88;;;;;;;7.45;93.20;102423.91;4930850;29;20016;-82
2021/12/14 00:35:45;;;;;;;68.50;61.20;;;;;;;7.45;92.66;102439.28;4921594;29;20012;-81
2021/12/14 00:38:14;;;;;;;80.00;63.38;;;;;;;7.34;93.28;102422.09;4960976;29;20008;-75
2021/12/14 00:40:45;;;;;;;72.82;61.58;;;;;;;7.40;93.42;102435.81;4945417;29;20032;-85
2021/12/14 00:43:10;;;;;;;73.30;62.20;;;;;;;7.40;93.21;102420.44;4928011;29;20028;-84
2021/12/14 00:45:41;;;;;;;71.07;61.07;;;;;;;7.40;93.09;102415.34;4926665;29;20047;-81
2021/12/14 00:48:08;;;;;;;71.75;60.50;;;;;;;7.43;93.04;102429.88;4923702;29;20099;-83
2021/12/14 00:50:34;;;;;;;71.70;60.97;;;;;;;7.45;92.45;102444.41;4923502;29;20023;-81
2021/12/14 00:53:00;;;;;;;69.35;61.65;;;;;;;7.57;91.93;102441.13;4942496;29;20114;-81
2021/12/14 00:55:31;;;;;;;71.35;61.72;;;;;;;7.43;91.64;102429.88;4911024;29;20063;-83
2021/12/14 00:57:58;;;;;;;68.80;60.63;;;;;;;7.54;92.55;102451.34;4927643;29;20959;-81
2021/12/14 01:00:25;;;;;;;;;;;;;;;7.59;91.72;102456.53;4937644;29;20054;-82
2021/12/14 01:02:50;;;;;;;66.45;59.30;;;;;;;7.54;91.54;102447.91;4945674;29;19969;-81
2021/12/14 01:05:21;;;;;;;66.37;59.20;;;;;;;7.59;92.05;102459.09;4943057;29;20463;-81
2021/12/14 01:07:47;;;;;;;67.80;60.42;;;;;;;7.48;91.94;102453.84;4945326;29;20038;-80
2021/12/14 01:10:41;;;;;;;72.43;61.20;;;;;;;7.52;92.22;102470.94;4953263;29;20035;-82
2021/12/14 01:13:09;;;;;;;66.20;58.63;;;;;;;7.53;92.23;102470.09;4951565;29;20036;-80
2021/12/14 01:15:58;;;;;;;66.63;59.13;;;;;;;7.57;91.75;102473.56;4933802;29;20056;-81
2021/12/14 01:18:44;;;;;;;67.68;59.88;;;;;;;7.54;92.27;102471.84;4954892;29;20032;-82
2021/12/14 01:21:19;;;;;;;66.78;59.63;;;;;;;7.65;92.05;102476.19;4927279;29;20031;-82
2021/12/14 01:23:46;;;;;;;69.75;60.90;;;;;;;7.52;92.36;102470.94;4911542;29;20054;-81
2021/12/14 01:26:16;;;;;;;67.95;60.55;;;;;;;7.51;91.95;102474.34;4943125;29;20290;-81
2021/12/14 01:28:42;;;;;;;65.65;58.65;;;;;;;7.49;91.85;102465.78;4943590;29;20228;-81
2021/12/14 01:31:23;;;;;;;67.78;59.55;;;;;;;7.42;92.88;102458.88;4943296;29;20067;-82
2021/12/14 01:33:54;;;;;;;72.22;61.05;;;;;;;7.42;92.17;102453.75;4943394;29;20398;-82
2021/12/14 01:36:43;;;;;;;70.53;60.28;;;;;;;7.40;91.83;102451.19;4908216;29;20031;-82
2021/12/14 01:41:57;;;;;;;72.28;62.38;;;;;;;7.43;92.50;102446.09;4927844;29;20024;-81
2021/12/14 01:44:25;;;;;;;69.70;60.33;;;;;;;7.40;91.57;102440.09;4948873;29;20463;-82
2021/12/14 01:46:56;;;;;;;69.22;58.97;;;;;;;7.43;91.77;102443.53;4920397;29;20028;-81
2021/12/14 01:49:23;;;;;;;65.85;58.75;;;;;;;7.39;91.65;102443.47;4946995;29;20037;-81
2021/12/14 01:51:51;;;;;;;65.90;58.78;;;;;;;7.42;91.96;102439.25;4945586;29;20375;-82
2021/12/14 01:54:20;;;;;;;65.57;58.65;;;;;;;7.34;91.31;102440.00;4947012;29;20529;-81
2021/12/14 01:56:46;;;;;;;68.22;60.78;;;;;;;7.36;92.33;102441.72;4940835;29;20030;-82
2021/12/14 01:59:28;;;;;;;69.97;60.03;;;;;;;7.35;92.00;102442.59;4935272;29;20024;-82
2021/12/14 02:02:09;;;;;;;72.30;62.58;;;;;;;7.38;92.25;102442.63;4932224;29;20015;-82
2021/12/14 02:04:39;;;;;;;67.43;60.17;;;;;;;7.35;91.50;102427.22;4927642;29;20047;-82
2021/12/14 02:07:07;;;;;;;69.97;61.70;;;;;;;7.31;92.39;102406.69;4927570;29;20016;-81
2021/12/14 02:09:34;;;;;;;68.65;60.95;;;;;;;7.32;91.55;102410.94;4946954;29;20016;-80
2021/12/14 02:12:06;;;;;;;68.85;61.35;;;;;;;7.30;91.96;102398.16;4953755;29;20066;-80
2021/12/14 02:14:32;;;;;;;67.78;60.17;;;;;;;7.29;91.60;102386.19;4948351;29;20050;-81
2021/12/14 02:17:02;;;;;;;67.30;59.93;;;;;;;7.28;91.74;102383.63;4947299;29;20036;-81
2021/12/14 02:19:28;;;;;;;69.53;61.15;;;;;;;7.29;92.27;102383.63;4952556;29;20034;-81
2021/12/14 02:21:54;;;;;;;;;;;;;;;7.32;91.47;102386.22;4934046;29;20047;-83
2021/12/14 02:24:21;;;;;;;65.85;58.92;;;;;;;7.35;91.32;102385.38;4923406;29;20343;-82
2021/12/14 02:26:47;;;;;;;70.30;62.63;;;;;;;7.29;92.20;102381.06;4932343;29;20023;-82
2021/12/14 02:29:30;;;;;;;71.72;60.40;;;;;;;7.28;91.66;102374.22;4950473;28;20095;-80
2021/12/14 02:32:08;;;;;;;72.20;62.03;;;;;;;7.33;92.08;102372.56;4951907;28;20015;-80
2021/12/14 02:34:42;;;;;;;70.20;60.05;;;;;;;7.31;91.25;102375.97;4967855;28;20020;-81
2021/12/14 02:37:08;;;;;;;66.57;59.20;;;;;;;7.29;92.12;102358.03;4941267;29;20015;-81
2021/12/14 02:42:07;;;;;;;68.38;60.70;;;;;;;7.29;91.00;102355.47;4935130;29;20024;-82
2021/12/14 02:44:33;;;;;;;70.03;60.22;;;;;;;7.24;91.68;102346.91;4917003;29;20028;-82
2021/12/14 02:47:01;;;;;;;66.82;59.67;;;;;;;7.29;91.35;102340.13;4928317;29;20453;-82
2021/12/14 02:49:29;;;;;;;68.47;60.17;;;;;;;7.29;91.59;102337.56;4939492;29;20046;-82
2021/12/14 02:52:07;;;;;;;71.88;61.35;;;;;;;7.28;90.98;102346.06;4927444;29;20024;-82
2021/12/14 02:54:49;;;;;;;67.25;59.92;;;;;;;7.39;90.94;102353.88;4914693;29;20016;-81
2021/12/14 02:57:27;;;;;;;66.57;59.35;;;;;;;7.28;91.60;102348.63;4923995;29;20030;-81
2021/12/14 02:59:53;;;;;;;66.50;59.28;;;;;;;7.37;91.25;102361.53;4942843;29;20118;-81
2021/12/14 03:02:23;;;;;;;67.50;60.17;;;;;;;7.36;91.38;102356.41;4945919;29;20029;-81
2021/12/14 03:04:56;;;;;;;69.40;59.10;;;;;;;7.26;91.09;102334.97;4929707;29;20032;-82
2021/12/14 03:07:26;;;;;;;68.63;61.03;;;;;;;7.33;91.41;102352.09;4936728;29;20031;-82
2021/12/14 03:10:00;;;;;;;68.07;60.38;;;;;;;7.36;90.54;102341.03;4919484;29;20027;-82
2021/12/14 03:12:34;;;;;;;66.85;59.15;;;;;;;7.42;90.33;102357.31;4930773;29;20019;-82
2021/12/14 03:15:12;;;;;;;69.57;61.33;;;;;;;7.33;90.69;102341.00;4926291;29;20086;-82
2021/12/14 03:17:39;;;;;;;69.07;61.58;;;;;;;7.44;90.41;102355.66;4956648;29;20035;-81
2021/12/14 03:20:10;;;;;;;68.93;59.67;;;;;;;7.45;90.94;102343.69;4962958;28;20020;-79
2021/12/14 03:22:44;;;;;;;69.55;61.47;;;;;;;7.25;90.70;102320.44;4949152;28;20050;-81
2021/12/14 03:25:12;;;;;;;68.18;59.80;;;;;;;7.29;90.50;102329.88;4936234;29;20030;-82
2021/12/14 03:27:39;;;;;;;68.93;60.75;;;;;;;7.31;90.46;102337.56;4926738;29;20040;-82
2021/12/14 03:30:17;;;;;;;68.10;60.53;;;;;;;7.30;90.76;102329.06;4911296;29;20098;-82
2021/12/14 03:32:42;;;;;;;77.57;60.72;;;;;;;7.24;90.29;102326.41;4947882;29;20144;-82
2021/12/14 03:35:07;;;;;;;70.60;60.87;;;;;;;7.19;90.79;102325.50;4927917;29;20059;-81
2021/12/14 03:37:33;;;;;;;65.43;58.60;;;;;;;7.27;90.64;102341.81;4925961;29;20035;-81
2021/12/14 03:40:02;;;;;;;67.67;58.30;;;;;;;7.30;90.62;102341.84;4927743;29;20086;-82
2021/12/14 03:42:39;;;;;;;66.07;58.88;;;;;;;7.33;90.17;102352.09;4925209;29;20033;-82
2021/12/14 03:45:17;;;;;;;68.38;60.97;;;;;;;7.33;90.59;102352.09;4916854;29;20030;-82
2021/12/14 03:47:51;;;;;;;67.28;59.47;;;;;;;7.42;90.21;102364.16;4924580;29;20038;-81
2021/12/14 03:50:25;;;;;;;65.25;58.30;;;;;;;7.47;89.84;102359.06;4927483;29;20046;-83
2021/12/14 03:52:51;;;;;;;66.70;58.92;;;;;;;7.30;89.67;102346.97;4918812;29;20038;-82
2021/12/14 03:55:23;;;;;;;73.00;60.80;;;;;;;7.49;89.97;102352.25;4939494;29;20031;-81
2021/12/14 03:57:48;;;;;;;67.38;59.90;;;;;;;7.29;89.94;102337.56;4921410;29;20087;-81
2021/12/14 04:00:23;;;;;;;65.53;58.53;;;;;;;7.41;89.34;102360.75;4919963;29;20039;-81
2021/12/14 04:02:51;;;;;;;67.47;60.10;;;;;;;7.34;89.65;102353.81;4907973;29;20038;-81
2021/12/14 04:05:18;;;;;;;68.63;60.05;;;;;;;7.40;89.35;102359.00;4925620;29;20031;-81
2021/12/14 04:07:44;;;;;;;73.45;60.83;;;;;;;7.30;90.13;102349.53;4944634;29;20479;-80
2021/12/14 04:10:17;;;;;;;66.30;59.08;;;;;;;7.38;90.40;102349.59;4949742;29;20414;-80
2021/12/14 04:12:43;;;;;;;64.85;58.15;;;;;;;7.39;90.45;102348.75;4926812;29;20051;-79
2021/12/14 04:15:09;;;;;;;69.32;60.42;;;;;;;7.30;90.09;102346.97;4920754;29;20087;-82
2021/12/14 04:17:35;;;;;;;67.57;59.67;;;;;;;7.27;89.59;102344.38;4937964;29;20039;-80
2021/12/14 04:20:01;;;;;;;67.70;60.42;;;;;;;7.35;89.98;102329.94;4924578;29;20024;-81
2021/12/14 04:22:30;;;;;;;66.80;59.57;;;;;;;7.32;89.93;102319.69;4928015;29;20110;-80
2021/12/14 04:25:00;;;;;;;66.63;59.72;;;;;;;7.22;90.55;102343.44;4916415;29;20082;-80
2021/12/14 04:27:28;;;;;;;66.63;59.30;;;;;;;7.48;89.72;102340.28;4943339;29;20031;-81
2021/12/14 04:29:54;;;;;;;66.40;59.25;;;;;;;7.30;89.81;102326.50;4927155;29;20491;-81
2021/12/14 04:32:20;;;;;;;67.10;59.80;;;;;;;7.39;89.44;102333.38;4923699;29;20031;-81
2021/12/14 04:34:46;;;;;;;66.85;59.83;;;;;;;7.36;88.74;102323.97;4926030;29;20015;-81
2021/12/14 04:37:14;;;;;;;65.72;58.70;;;;;;;7.32;88.70;102313.69;4921453;29;20070;-81
2021/12/14 04:39:45;;;;;;;67.45;58.92;;;;;;;7.32;88.58;102314.56;4932708;29;20066;-81
2021/12/14 04:53:54;;;;;;;65.13;58.47;;;;;;;7.35;89.08;102321.38;4945623;29;20092;-81
2021/12/14 04:56:23;;;;;;;65.53;58.47;;;;;;;7.34;89.10;102317.97;4939703;29;20035;-81
2021/12/14 04:59:07;;;;;;;65.55;58.78;;;;;;;7.37;88.25;102315.44;4935103;29;20112;-82
2021/12/14 05:01:35;;;;;;;65.60;58.50;;;;;;;7.42;87.36;102316.34;4957488;29;20031;-82
2021/12/14 05:04:05;;;;;;;64.57;57.92;;;;;;;7.35;87.91;102319.72;4957476;29;20039;-81
2021/12/14 05:06:48;;;;;;;68.30;60.85;;;;;;;7.27;88.18;102308.53;4957693;29;20027;-81
2021/12/14 05:09:30;;;;;;;66.38;59.28;;;;;;;7.33;88.03;102320.53;4961439;29;20109;-81
2021/12/14 05:12:09;;;;;;;64.43;57.67;;;;;;;7.39;87.70;102313.75;4940934;29;20034;-82
2021/12/14 05:14:36;;;;;;;66.25;59.03;;;;;;;7.29;87.66;102301.72;4945319;29;20012;-81
2021/12/14 05:17:07;;;;;;;65.07;58.38;;;;;;;7.32;87.62;102303.44;4944448;29;20036;-82
2021/12/14 05:19:36;;;;;;;64.13;57.58;;;;;;;7.40;86.92;102312.94;4935152;29;20024;-81
2021/12/14 05:22:18;;;;;;;69.97;58.60;;;;;;;7.50;87.07;102318.13;4939325;29;20028;-82
2021/12/14 05:24:48;;;;;;;64.75;57.65;;;;;;;7.37;87.55;102302.66;4947951;29;20046;-82
2021/12/14 05:27:17;;;;;;;64.68;57.75;;;;;;;7.37;87.12;102307.78;4927782;29;20062;-81
2021/12/14 05:29:43;;;;;;;63.47;56.65;;;;;;;7.35;87.19;102314.59;4941852;29;20035;-82
2021/12/14 05:32:10;;;;;;;65.73;58.63;;;;;;;7.29;86.52;102283.81;4949758;29;20103;-81
2021/12/14 05:34:36;;;;;;;65.30;58.20;;;;;;;7.17;87.47;102293.91;4940485;29;20038;-81
2021/12/14 05:37:02;;;;;;;64.70;57.92;;;;;;;7.29;87.45;102306.84;4929406;29;20023;-82
2021/12/14 05:39:53;;;;;;;65.18;58.38;;;;;;;7.20;87.33;102309.31;4937328;29;20031;-83
2021/12/14 05:45:06;;;;;;;65.07;58.38;;;;;;;7.35;86.92;102306.91;4931728;29;20039;-82
2021/12/14 05:47:31;;;;;;;63.72;57.13;;;;;;;7.33;86.96;102306.00;4944614;29;20055;-83
2021/12/14 05:49:57;;;;;;;63.17;56.53;;;;;;;7.23;87.50;102299.94;4928172;29;20127;-82
2021/12/14 05:52:25;;;;;;;62.57;56.13;;;;;;;7.28;87.15;102297.44;4937935;29;20095;-82
2021/12/14 05:54:53;;;;;;;65.78;58.88;;;;;;;7.29;86.69;102304.28;4914821;29;20023;-83
2021/12/14 05:57:22;;;;;;;62.15;55.80;;;;;;;7.24;86.51;102290.59;4919833;29;20032;-85
2021/12/14 05:59:48;;;;;;;62.58;56.13;;;;;;;7.37;86.78;102297.53;4943535;29;20027;-83
2021/12/14 06:02:14;;;;;;;66.38;59.10;;;;;;;7.35;86.18;102289.00;4928292;29;20078;-83
2021/12/14 06:04:45;;;;;;;64.63;58.00;;;;;;;7.37;86.57;102284.72;4942493;29;20020;-82
2021/12/14 06:07:11;;;;;;;63.78;57.22;;;;;;;7.30;86.95;102285.53;4946992;29;20031;-81
2021/12/14 06:09:40;;;;;;;63.17;56.72;;;;;;;7.35;86.25;102283.00;4935260;29;20038;-82
2021/12/14 06:12:10;;;;;;;63.65;56.97;;;;;;;7.34;86.98;102294.09;4949897;29;20070;-81
2021/12/14 06:14:42;;;;;;;67.47;57.50;;;;;;;7.41;86.75;102294.16;4926230;29;20015;-79
2021/12/14 06:17:08;;;;;;;62.13;55.92;;;;;;;7.22;87.37;102294.81;4939394;29;20031;-81
2021/12/14 06:19:36;;;;;;;65.22;58.28;;;;;;;7.38;86.73;102306.06;4954699;29;20026;-82
2021/12/14 06:22:14;;;;;;;64.30;57.72;;;;;;;7.32;nan;102309.44;4941233;29;20019;-82
2021/12/14 06:24:43;;;;;;;63.47;56.83;;;;;;;7.30;86.96;102306.00;4938710;29;20012;-80
2021/12/14 06:27:14;;;;;;;65.20;58.17;;;;;;;7.39;88.12;102316.31;4945024;29;20088;-80
2021/12/14 06:30:01;;;;;;;62.42;56.28;;;;;;;7.26;87.69;102306.81;4946245;29;20575;-81
2021/12/14 06:32:39;;;;;;;64.78;57.80;;;;;;;7.19;88.80;102307.56;4951603;28;20039;-84
2021/12/14 06:35:22;;;;;;;64.90;58.20;;;;;;;7.16;90.58;102320.34;4912693;29;20035;-81
2021/12/14 06:40:32;;;;;;;67.20;60.00;;;;;;;6.91;92.23;102322.63;4954502;29;20040;-82
2021/12/14 06:43:04;;;;;;;64.47;57.97;;;;;;;7.04;92.63;102318.50;4944930;29;20102;-81
2021/12/14 06:45:34;;;;;;;75.47;60.55;;;;;;;7.04;92.25;102324.47;4943493;29;20019;-83
2021/12/14 06:48:11;;;;;;;66.72;59.45;;;;;;;7.17;92.09;102324.63;4941904;29;20027;-81
2021/12/14 06:51:04;;;;;;;64.55;57.85;;;;;;;7.11;92.86;102325.44;4934475;29;20023;-80
2021/12/14 06:53:30;;;;;;;69.35;59.05;;;;;;;7.06;92.92;102325.38;4920607;29;20096;-82
2021/12/14 06:55:58;;;;;;;65.32;58.20;;;;;;;7.18;92.19;102321.22;4929917;29;20058;-83
2021/12/14 06:58:27;;;;;;;65.35;58.22;;;;;;;7.03;91.64;102312.53;4933594;29;20121;-82
2021/12/14 07:01:05;;;;;;;65.25;58.30;;;;;;;7.17;92.86;102324.63;4930959;29;20028;-81
2021/12/14 07:03:58;;;;;;;65.78;58.88;;;;;;;7.04;92.49;102328.75;4932206;29;20028;-82
2021/12/14 07:06:23;;;;;;;64.80;57.83;;;;;;;7.02;92.38;102328.72;4929004;29;20035;-82
2021/12/14 07:08:49;;;;;;;65.33;58.53;;;;;;;7.00;91.95;102317.63;4935059;29;20075;-82
2021/12/14 07:11:23;;;;;;;67.38;59.05;;;;;;;6.98;91.72;102308.19;4930172;29;20399;-83
2021/12/14 07:13:49;;;;;;;66.25;58.45;;;;;;;7.14;91.17;102327.16;4931657;29;20395;-83
2021/12/14 07:16:46;;;;;;;;;;;;;;;7.20;91.37;102328.06;4931304;29;20023;-82
2021/12/14 07:19:11;;;;;;;68.07;60.65;;;;;;;7.12;90.62;102332.25;4929008;29;19917;-82
2021/12/14 07:21:47;;;;;;;65.70;57.10;;;;;;;7.21;91.19;102334.91;4931488;29;20152;-83
2021/12/14 07:24:22;;;;;;;70.60;60.20;;;;;;;7.15;91.08;102326.31;4934541;29;20023;-81
2021/12/14 07:27:14;;;;;;;64.95;58.03;;;;;;;7.19;90.83;102322.94;4958134;29;20095;-82
2021/12/14 07:29:40;;;;;;;65.53;58.20;;;;;;;7.11;91.27;102315.19;4945520;29;20036;-82
2021/12/14 07:32:06;;;;;;;66.63;59.23;;;;;;;7.13;91.28;102328.00;4933436;29;20106;-82
2021/12/14 07:34:31;;;;;;;66.13;59.13;;;;;;;7.13;91.89;102333.13;4928246;29;20043;-81
2021/12/14 07:36:56;;;;;;;64.73;58.00;;;;;;;7.15;91.85;102351.91;4923110;29;20237;-81
2021/12/14 07:39:22;;;;;;;66.47;58.60;;;;;;;7.19;91.23;102338.28;4934126;29;20027;-81
2021/12/14 07:41:50;;;;;;;76.10;61.10;;;;;;;7.11;91.18;102345.03;4936224;29;20028;-82
2021/12/14 07:44:18;;;;;;;69.35;60.25;;;;;;;7.14;91.63;102355.28;4923569;29;20047;-81
2021/12/14 07:46:52;;;;;;;75.13;61.45;;;;;;;7.04;93.00;102354.34;4929392;29;20018;-80
2021/12/14 07:49:23;;;;;;;71.78;60.40;;;;;;;7.00;94.76;102363.69;4936564;29;20032;-81
2021/12/14 07:51:52;;;;;;;70.03;60.35;;;;;;;7.05;95.85;102367.16;4948771;29;20035;-80
2021/12/14 07:54:21;;;;;;;71.18;60.70;;;;;;;7.00;95.70;102366.25;4935453;29;20024;-81
2021/12/14 07:56:49;;;;;;;81.35;63.28;;;;;;;6.86;96.55;102372.88;4928842;29;20027;-82
2021/12/14 07:59:23;;;;;;;67.60;59.88;;;;;;;7.05;96.62;102374.81;4919288;29;20074;-82
2021/12/14 08:01:52;;;;;;;74.20;61.80;;;;;;;6.99;96.91;102376.44;4936120;29;20027;-81
2021/12/14 08:04:17;;;;;;;71.97;60.75;;;;;;;7.03;97.30;102378.19;4933760;29;20035;-83
2021/12/14 08:06:53;;;;;;;76.17;62.03;;;;;;;7.07;96.82;102374.84;4933587;29;20036;-81
2021/12/14 08:09:33;;;;;;;71.53;60.20;;;;;;;6.95;96.94;102379.78;4945532;29;20100;-84
2021/12/14 08:12:03;;;;;;;73.63;61.78;;;;;;;7.04;96.43;102385.03;4947845;29;20043;-88
2021/12/14 08:14:48;;;;;;;78.28;62.17;;;;;;;7.04;96.48;102391.00;4942490;29;20027;-87
2021/12/14 08:17:13;;;;;;;73.38;61.60;;;;;;;6.98;96.93;102375.56;4955380;29;20061;-86
2021/12/14 08:19:44;;;;;;;76.63;62.40;;;;;;;7.14;96.04;102388.56;4939711;29;20044;-82
2021/12/14 08:22:37;;;;;;;80.05;62.67;;;;;;;7.16;96.16;102398.00;4942743;29;20518;-85
2021/12/14 08:25:05;;;;;;;85.63;62.67;;;;;;;7.08;95.81;102385.09;4930644;29;20075;-87
2021/12/14 08:27:31;;;;;;;72.93;63.25;;;;;;;7.13;96.25;102390.28;4923313;29;20028;-85
2021/12/14 08:30:02;;;;;;;74.83;62.37;;;;;;;7.10;96.11;102379.16;4944299;29;20062;-81
2021/12/14 08:32:34;;;;;;;78.80;61.78;;;;;;;7.11;95.49;102379.16;4923814;29;20102;-82
2021/12/14 08:35:02;;;;;;;70.03;59.80;;;;;;;7.20;95.88;102375.84;4911878;29;20039;-84
2021/12/14 08:37:30;;;;;;;74.68;63.17;;;;;;;7.25;96.17;102374.19;4927737;29;20032;-81
2021/12/14 08:40:01;;;;;;;70.68;61.92;;;;;;;7.25;95.29;102369.06;4909905;29;20048;-81
2021/12/14 08:42:39;;;;;;;86.03;63.33;;;;;;;7.18;95.65;102368.16;4927271;29;20031;-82
2021/12/14 08:45:24;;;;;;;80.68;62.08;;;;;;;7.07;96.40;102373.13;4929771;29;20031;-81
2021/12/14 08:48:11;;;;;;;79.53;63.08;;;;;;;7.08;96.42;102369.75;4931411;29;20023;-81
2021/12/14 08:50:42;;;;;;;93.50;67.60;;;;;;;7.04;97.65;102365.41;4954915;29;20038;-82
2021/12/14 08:53:09;;;;;;;75.85;63.50;;;;;;;7.14;96.95;102380.88;4941082;29;20266;-81
2021/12/14 08:55:37;;;;;;;75.68;63.38;;;;;;;7.13;97.59;102374.06;4947251;29;20063;-82
2021/12/14 08:58:04;;;;;;;79.85;63.78;;;;;;;7.21;97.86;102377.56;4959214;29;20050;-79
2021/12/14 09:00:39;;;;;;;74.00;62.85;;;;;;;7.15;97.86;102385.16;4959963;29;20099;-81
2021/12/14 09:03:07;;;;;;;75.72;61.85;;;;;;;7.12;98.22;102382.56;4955263;29;20024;-82
2021/12/14 09:05:41;;;;;;;78.22;63.83;;;;;;;7.05;98.02;102392.72;4959553;29;20019;-79
2021/12/14 09:08:06;;;;;;;85.82;64.65;;;;;;;7.13;98.32;102395.38;4959839;29;20050;-81
2021/12/14 09:10:34;;;;;;;84.10;66.07;;;;;;;6.84;99.38;102379.66;4957838;28;20011;-80
2021/12/14 09:13:04;;;;;;;80.22;63.25;;;;;;;6.97;100.00;102379.00;4978177;28;20023;-81
2021/12/14 09:15:35;;;;;;;83.15;64.28;;;;;;;7.00;99.32;102373.03;4952096;29;20019;-81
2021/12/14 09:18:00;;;;;;;77.68;63.85;;;;;;;7.08;100.00;102386.81;4948505;29;20027;-81
2021/12/14 09:20:30;;;;;;;84.55;65.45;;;;;;;6.95;100.00;102379.78;4946810;29;20023;-80
2021/12/14 09:23:02;;;;;;;76.95;63.10;;;;;;;6.92;99.79;102385.75;4950035;29;20028;-81
2021/12/14 09:25:29;;;;;;;79.57;63.13;;;;;;;6.88;100.00;102374.59;4948278;29;20092;-80
2021/12/14 09:27:56;;;;;;;84.30;64.57;;;;;;;6.86;100.00;102380.56;4949223;29;20023;-81
2021/12/14 09:30:24;;;;;;;84.80;63.90;;;;;;;6.85;100.00;102371.16;4949282;29;20391;-80
2021/12/14 09:32:50;;;;;;;84.78;65.35;;;;;;;6.85;100.00;102371.16;4953080;29;20039;-81
2021/12/14 09:35:19;;;;;;;93.87;67.53;;;;;;;6.92;100.00;102372.97;4953306;29;20019;-82
2021/12/14 09:37:47;;;;;;;87.97;65.80;;;;;;;7.10;100.00;102384.25;4969040;29;20023;-82
2021/12/14 09:40:35;;;;;;;81.93;64.38;;;;;;;7.14;100.00;102391.13;4952466;29;20029;-82
2021/12/14 09:43:01;;;;;;;82.78;66.28;;;;;;;7.11;100.00;102391.09;4950760;29;20023;-81
2021/12/14 09:45:33;;;;;;;80.00;64.83;;;;;;;7.06;100.00;102391.91;4951690;29;20035;-80
2021/12/14 09:47:59;;;;;;;84.88;65.30;;;;;;;7.11;100.00;102403.88;4954938;29;20031;-81
2021/12/14 09:50:28;;;;;;;83.32;66.40;;;;;;;7.13;100.00;102402.22;4955461;29;20090;-82
2021/12/14 09:52:55;;;;;;;84.03;64.63;;;;;;;7.19;100.00;102399.72;4937163;29;20063;-81
2021/12/14 09:55:24;;;;;;;89.97;66.57;;;;;;;7.12;100.00;102397.94;4952616;29;20027;-81
2021/12/14 09:57:53;;;;;;;90.05;66.00;;;;;;;7.30;100.00;102404.97;4949040;29;20023;-81
2021/12/14 10:00:47;;;;;;;83.38;64.30;;;;;;;7.34;99.85;102422.09;4933051;28;20027;-81
2021/12/14 10:03:13;;;;;;;79.85;63.20;;;;;;;7.42;99.45;102413.63;4954575;29;20027;-81
2021/12/14 10:05:50;;;;;;;87.82;65.07;;;;;;;7.44;99.63;102409.41;4951431;29;20038;-81
2021/12/14 10:08:19;;;;;;;90.83;67.93;;;;;;;7.39;99.15;102387.16;4949171;29;20034;-82
2021/12/14 10:11:03;;;;;;;81.43;65.15;;;;;;;7.48;98.89;102411.97;4951086;29;20026;-82
2021/12/14 10:13:29;;;;;;;84.90;64.47;;;;;;;7.42;99.42;102408.53;4949894;29;20023;-81
2021/12/14 10:15:56;;;;;;;83.05;64.68;;;;;;;7.39;99.84;102413.59;4948491;29;20055;-80
2021/12/14 10:18:29;;;;;;;92.32;67.40;;;;;;;7.37;99.67;102417.00;4950358;29;20024;-81
2021/12/14 10:21:20;;;;;;;87.45;64.93;;;;;;;7.44;100.00;102417.09;4948374;29;20023;-82
2021/12/14 10:23:46;;;;;;;88.15;63.78;;;;;;;7.61;100.00;102421.53;4949111;29;20031;-83
2021/12/14 10:26:12;;;;;;;88.70;65.93;;;;;;;7.44;99.51;102403.41;4950534;29;20034;-82
2021/12/14 10:28:40;;;;;;;82.60;64.33;;;;;;;7.49;99.28;102408.59;4936592;29;20035;-81
2021/12/14 10:31:10;;;;;;;83.68;65.35;;;;;;;7.21;100.00;102421.09;4961643;29;20166;-81
2021/12/14 10:33:38;;;;;;;85.88;67.50;;;;;;;7.25;100.00;102410.91;4960515;29;20038;-81
2021/12/14 10:36:16;;;;;;;79.75;64.85;;;;;;;7.35;99.96;102418.66;4963634;29;20011;-81
2021/12/14 10:39:06;;;;;;;86.18;65.60;;;;;;;7.49;99.98;102414.56;4963330;29;20038;-81
2021/12/14 10:44:16;;;;;;;82.22;65.40;;;;;;;7.53;100.00;102405.22;4961896;29;20041;-81
2021/12/14 10:46:46;;;;;;;79.25;63.38;;;;;;;7.37;99.62;102406.75;4957040;29;20023;-80
2021/12/14 10:49:14;;;;;;;80.00;63.67;;;;;;;7.44;100.00;102411.97;4951749;29;20027;-81
2021/12/14 10:51:41;;;;;;;82.32;66.03;;;;;;;7.51;100.00;102406.91;4951554;29;20038;-82
2021/12/14 10:54:10;;;;;;;83.55;66.75;;;;;;;7.41;99.71;102400.81;4951276;29;20024;-81
2021/12/14 10:56:49;;;;;;;83.93;65.28;;;;;;;7.26;100.00;102411.75;4950571;29;20034;-81
2021/12/14 10:59:17;;;;;;;80.47;64.20;;;;;;;7.41;100.00;102411.94;4950830;29;20050;-81
2021/12/14 11:01:49;;;;;;;86.45;66.28;;;;;;;7.47;100.00;102393.22;4950313;29;20023;-83
2021/12/14 11:04:16;;;;;;;86.10;66.15;;;;;;;7.30;100.00;102395.59;4953117;29;20024;-81
2021/12/14 11:06:45;;;;;;;80.70;65.60;;;;;;;7.52;100.00;102403.50;4950530;29;20034;-81
2021/12/14 11:09:45;;;;;;;88.13;64.97;;;;;;;7.30;100.00;102408.41;4950448;29;20038;-80
2021/12/14 11:12:28;;;;;;;81.15;64.13;;;;;;;7.57;100.00;102422.34;4955412;28;20007;-81
2021/12/14 11:14:59;;;;;;;81.63;63.80;;;;;;;7.54;100.00;102412.06;4934206;29;20023;-82
2021/12/14 11:20:19;;;;;;;85.32;66.28;;;;;;;7.71;100.00;102436.16;4952768;29;20041;-81
2021/12/14 11:22:51;;;;;;;84.05;65.65;;;;;;;7.72;100.00;102431.91;4950168;29;20047;-81
2021/12/14 11:25:21;;;;;;;86.28;66.15;;;;;;;7.52;100.00;102413.75;4945041;29;20035;-82
2021/12/14 11:27:49;;;;;;;86.00;66.38;;;;;;;7.49;100.00;102431.63;4929790;29;20024;-82
2021/12/14 11:30:24;;;;;;;89.28;64.75;;;;;;;7.48;100.00;102424.78;4928603;29;20024;-82
2021/12/14 11:33:08;;;;;;;82.45;64.30;;;;;;;7.64;100.00;102424.13;4929226;29;20138;-81
2021/12/14 11:35:45;;;;;;;86.68;66.43;;;;;;;7.67;100.00;102419.03;4946200;29;20023;-81
2021/12/14 11:38:40;;;;;;;95.72;68.05;;;;;;;7.70;100.00;102425.88;4945421;29;20467;-81
2021/12/14 11:41:26;;;;;;;85.78;65.35;;;;;;;7.71;99.58;102431.03;4946307;29;20541;-81
2021/12/14 11:44:02;;;;;;;87.13;67.63;;;;;;;7.55;100.00;102432.56;4913965;29;20031;-80
2021/12/14 11:46:32;;;;;;;80.97;66.78;;;;;;;7.66;100.00;102442.94;4952636;29;20035;-81
2021/12/14 11:49:02;;;;;;;84.80;67.18;;;;;;;7.68;100.00;102451.47;4927935;29;20076;-82
2021/12/14 11:51:29;;;;;;;87.05;65.93;;;;;;;7.73;99.63;102454.97;4927761;29;20115;-81
2021/12/14 11:53:58;;;;;;;85.43;66.43;;;;;;;7.75;100.00;102455.84;4930925;29;20078;-81
2021/12/14 11:56:26;;;;;;;82.22;65.25;;;;;;;7.84;99.66;102461.91;4936150;29;20023;-82
2021/12/14 11:58:56;;;;;;;86.70;67.13;;;;;;;7.69;100.00;102452.34;4934421;29;20034;-82
2021/12/14 12:01:30;;;;;;;82.47;65.68;;;;;;;7.93;99.79;102451.75;4924931;29;20024;-81
2021/12/14 12:04:05;;;;;;;81.50;64.82;;;;;;;7.91;100.00;102458.56;4930824;29;20028;-79
2021/12/14 12:10:08;;;;;;;;;;;;;;;;;;;;;
2021/12/14 12:13:15;;;;;;;75.07;61.85;;;;;;;7.80;100.00;102425.16;4989451;28;20122;-85